createdAt,value
2023-07-27T00:01:44.353Z,14.40
2023-07-27T00:06:50.045Z,14.39
2023-07-27T00:11:57.293Z,14.36
2023-07-27T00:17:02.997Z,14.32
2023-07-27T00:22:09.373Z,14.28
2023-07-27T00:27:15.324Z,14.29
2023-07-27T00:32:21.224Z,14.32
2023-07-27T00:37:26.779Z,14.31
2023-07-27T00:42:32.336Z,14.23
2023-07-27T00:47:38.296Z,14.18
2023-07-27T00:52:45.045Z,14.17
2023-07-27T00:57:50.779Z,14.20
2023-07-27T01:02:56.752Z,14.22
2023-07-27T01:08:02.804Z,14.19
2023-07-27T01:13:14.083Z,14.13
2023-07-27T01:18:26.979Z,14.09
2023-07-27T01:23:59.650Z,14.07
2023-07-27T01:29:20.724Z,14.05
2023-07-27T01:34:30.850Z,13.98
2023-07-27T01:39:41.065Z,13.93
2023-07-27T01:44:48.839Z,13.92
2023-07-27T01:49:56.300Z,13.93
2023-07-27T01:55:03.680Z,13.91
2023-07-27T02:00:11.292Z,13.85
2023-07-27T02:05:21.365Z,13.82
2023-07-27T02:10:28.562Z,13.81
2023-07-27T02:15:48.572Z,13.83
2023-07-27T02:20:55.473Z,13.82
2023-07-27T02:26:01.236Z,13.78
2023-07-27T02:31:07.150Z,13.71
2023-07-27T02:36:12.727Z,13.69
2023-07-27T02:41:19.081Z,13.67
2023-07-27T02:46:24.960Z,13.67
2023-07-27T02:51:30.864Z,13.64
2023-07-27T02:56:37.526Z,13.59
2023-07-27T03:01:43.212Z,13.57
2023-07-27T03:06:56.898Z,13.58
2023-07-27T03:12:03.046Z,13.55
2023-07-27T03:17:09.591Z,13.54
2023-07-27T03:22:15.283Z,13.59
2023-07-27T03:27:21.107Z,13.62
2023-07-27T03:32:26.721Z,13.68
2023-07-27T03:37:32.294Z,13.73
2023-07-27T03:42:37.774Z,13.74
2023-07-27T03:47:46.329Z,13.76
2023-07-27T03:52:52.306Z,13.82
2023-07-27T04:02:41.857Z,13.93
2023-07-27T04:07:51.041Z,13.96
2023-07-27T04:13:00.789Z,13.97
2023-07-27T04:18:07.783Z,14.14
2023-07-27T04:23:15.739Z,14.35
2023-07-27T04:28:22.867Z,14.51
2023-07-27T04:33:30.493Z,14.68
2023-07-27T04:38:36.615Z,14.91
2023-07-27T04:43:44.217Z,15.41
2023-07-27T04:48:50.184Z,15.69
2023-07-27T04:53:56.221Z,15.98
2023-07-27T04:59:02.179Z,16.46
2023-07-27T05:04:08.849Z,17.39
2023-07-27T05:09:15.547Z,19.46
2023-07-27T05:14:21.132Z,22.89
2023-07-27T05:19:26.746Z,25.74
2023-07-27T05:24:33.683Z,27.83
2023-07-27T05:29:39.548Z,29.59
2023-07-27T05:34:45.487Z,31.00
2023-07-27T05:39:52.094Z,31.96
2023-07-27T05:44:59.176Z,32.68
2023-07-27T05:50:06.098Z,33.16
2023-07-27T05:55:16.799Z,30.41
2023-07-27T06:00:27.615Z,28.77
2023-07-27T06:05:46.447Z,29.97
2023-07-27T06:11:02.790Z,29.32
2023-07-27T06:16:10.453Z,28.18
2023-07-27T06:21:16.906Z,29.00
2023-07-27T06:26:25.259Z,28.74
2023-07-27T06:31:31.220Z,28.07
2023-07-27T06:36:44.897Z,29.01
2023-07-27T06:41:53.052Z,29.55
2023-07-27T06:47:07.746Z,28.83
2023-07-27T06:52:14.065Z,30.08
2023-07-27T06:57:20.432Z,30.55
2023-07-27T07:02:38.274Z,32.42
2023-07-27T07:07:53.908Z,34.27
2023-07-27T07:13:01.535Z,35.12
2023-07-27T07:18:28.941Z,35.66
2023-07-27T07:23:34.783Z,36.08
2023-07-27T07:28:41.227Z,36.47
2023-07-27T07:33:47.218Z,36.99
2023-07-27T07:38:53.693Z,37.51
2023-07-27T07:43:59.388Z,37.96
2023-07-27T07:49:05.681Z,38.20
2023-07-27T07:54:11.365Z,38.27
2023-07-27T07:59:17.193Z,38.46
2023-07-27T08:04:22.933Z,38.35
2023-07-27T08:09:29.879Z,37.98
2023-07-27T08:14:35.842Z,35.55
2023-07-27T08:19:41.708Z,35.56
2023-07-27T08:24:47.451Z,36.30
2023-07-27T08:29:53.430Z,37.04
2023-07-27T08:34:59.033Z,37.45
2023-07-27T08:40:10.288Z,37.91
2023-07-27T08:45:24.386Z,35.95
2023-07-27T08:50:32.813Z,33.88
2023-07-27T08:55:42.437Z,34.36
2023-07-27T09:00:48.356Z,33.74
2023-07-27T09:06:02.112Z,31.71
2023-07-27T09:11:10.911Z,32.06
2023-07-27T09:16:25.407Z,33.11
2023-07-27T09:21:41.251Z,32.27
2023-07-27T09:26:50.314Z,31.02
2023-07-27T09:32:00.113Z,29.36
2023-07-27T09:37:11.258Z,27.84
2023-07-27T09:42:20.138Z,26.73
2023-07-27T09:47:31.704Z,26.35
2023-07-27T09:52:40.488Z,27.23
2023-07-27T09:57:47.786Z,28.25
2023-07-27T10:02:59.607Z,28.07
2023-07-27T10:08:16.748Z,26.98
2023-07-27T10:13:42.239Z,28.57
2023-07-27T10:18:50.493Z,29.32
2023-07-27T10:23:58.367Z,30.44
2023-07-27T10:29:15.638Z,30.88
2023-07-27T10:34:25.684Z,31.57
2023-07-27T10:39:36.140Z,32.39
2023-07-27T10:44:46.951Z,32.84
2023-07-27T10:49:54.267Z,33.66
2023-07-27T10:55:01.315Z,33.98
2023-07-27T11:00:10.434Z,33.72
2023-07-27T11:05:16.426Z,32.75
2023-07-27T11:10:34.189Z,33.18
2023-07-27T11:15:40.351Z,33.23
2023-07-27T11:20:47.789Z,32.62
2023-07-27T11:25:56.097Z,33.12
2023-07-27T11:31:08.126Z,33.53
2023-07-27T11:36:14.080Z,33.73
2023-07-27T11:46:50.150Z,33.26
2023-07-27T11:51:59.099Z,32.82
2023-07-27T11:57:05.854Z,32.49
2023-07-27T12:02:13.564Z,32.11
2023-07-27T12:07:26.955Z,31.52
2023-07-27T12:17:52.814Z,30.24
2023-07-27T12:23:30.115Z,29.03
2023-07-27T12:33:33.939Z,28.82
2023-07-27T12:43:48.113Z,28.24
2023-07-27T12:48:55.627Z,28.32
2023-07-27T12:54:05.409Z,28.60
2023-07-27T12:59:13.009Z,28.51
2023-07-27T13:04:18.769Z,28.25
2023-07-27T13:09:24.711Z,28.00
2023-07-27T13:14:31.380Z,27.87
2023-07-27T13:19:37.204Z,27.80
2023-07-27T13:24:42.986Z,27.67
2023-07-27T13:29:49.327Z,27.75
2023-07-27T13:34:55.692Z,27.64
2023-07-27T13:40:02.917Z,27.59
2023-07-27T13:45:11.099Z,27.51
2023-07-27T13:50:18.574Z,27.30
2023-07-27T13:55:24.811Z,27.31
2023-07-27T14:00:32.644Z,27.20
2023-07-27T14:05:40.083Z,26.86
2023-07-27T14:10:46.463Z,26.51
2023-07-27T14:15:52.906Z,26.50
2023-07-27T14:20:58.721Z,26.33
2023-07-27T14:26:05.785Z,26.15
2023-07-27T14:31:13.855Z,25.99
2023-07-27T14:36:20.559Z,25.77
2023-07-27T14:41:27.604Z,25.69
2023-07-27T14:46:35.483Z,25.64
2023-07-27T14:51:41.978Z,25.60
2023-07-27T14:56:49.495Z,25.53
2023-07-27T15:01:58.723Z,25.17
2023-07-27T15:07:06.843Z,24.98
2023-07-27T15:12:16.068Z,24.72
2023-07-27T15:17:22.362Z,24.40
2023-07-27T15:22:28.802Z,24.30
2023-07-27T15:27:35.123Z,24.25
2023-07-27T15:32:42.281Z,24.22
2023-07-27T15:37:48.177Z,24.15
2023-07-27T15:42:54.935Z,24.14
2023-07-27T15:48:02.584Z,24.03
2023-07-27T15:53:09.954Z,23.90
2023-07-27T15:58:16.020Z,23.76
2023-07-27T16:03:22.337Z,23.59
2023-07-27T16:08:28.626Z,23.47
2023-07-27T16:13:34.817Z,23.33
2023-07-27T16:18:40.539Z,23.17
2023-07-27T16:23:46.654Z,23.00
2023-07-27T16:28:52.418Z,22.81
2023-07-27T16:33:58.268Z,22.64
2023-07-27T16:39:04.284Z,22.38
2023-07-27T16:44:10.688Z,22.13
2023-07-27T16:49:16.650Z,21.90
2023-07-27T16:54:22.427Z,21.72
2023-07-27T16:59:28.345Z,21.56
2023-07-27T17:04:37.781Z,21.43
2023-07-27T17:14:50.820Z,21.22
2023-07-27T17:19:57.222Z,21.12
2023-07-27T17:25:03.316Z,21.06
2023-07-27T17:30:13.292Z,20.97
2023-07-27T17:35:19.260Z,20.83
2023-07-27T17:40:25.491Z,20.67
2023-07-27T17:45:32.540Z,20.50
2023-07-27T17:50:38.589Z,20.26
2023-07-27T17:55:44.054Z,20.03
2023-07-27T18:00:49.973Z,19.87
2023-07-27T18:05:57.738Z,19.77
2023-07-27T18:11:10.141Z,19.67
2023-07-27T18:16:24.567Z,19.47
2023-07-27T18:21:30.756Z,19.19
2023-07-27T18:26:37.891Z,18.90
2023-07-27T18:31:43.594Z,18.56
2023-07-27T18:36:51.164Z,18.22
2023-07-27T18:42:18.307Z,17.88
2023-07-27T18:47:31.516Z,17.55
2023-07-27T18:52:39.873Z,17.29
2023-07-27T18:57:45.683Z,17.01
2023-07-27T19:02:51.823Z,16.81
2023-07-27T19:07:57.711Z,16.60
2023-07-27T19:13:03.682Z,16.36
2023-07-27T19:18:09.832Z,16.19
2023-07-27T19:23:19.114Z,16.08
2023-07-27T19:28:25.853Z,15.97
2023-07-27T19:33:34.440Z,15.84
2023-07-27T19:38:44.547Z,15.67
2023-07-27T19:43:53.253Z,15.46
2023-07-27T19:48:59.330Z,15.23
2023-07-27T19:54:05.761Z,15.09
2023-07-27T19:59:13.055Z,14.98
2023-07-27T20:04:19.045Z,14.92
2023-07-27T20:09:25.144Z,14.81
2023-07-27T20:14:35.479Z,14.71
2023-07-27T20:19:44.963Z,14.58
2023-07-27T20:24:53.110Z,14.49
2023-07-27T20:30:00.721Z,14.45
2023-07-27T20:35:16.945Z,14.45
2023-07-27T20:40:27.115Z,14.38
2023-07-27T20:45:37.786Z,14.31
2023-07-27T20:50:48.892Z,14.16
2023-07-27T20:55:57.393Z,14.13
2023-07-27T21:01:06.397Z,14.09
2023-07-27T21:06:12.415Z,14.03
2023-07-27T21:11:20.679Z,13.95
2023-07-27T21:16:26.921Z,13.88
2023-07-27T21:21:34.837Z,13.75
2023-07-27T21:26:42.408Z,13.65
2023-07-27T21:31:49.111Z,13.59
2023-07-27T21:36:56.585Z,13.60
2023-07-27T21:42:02.584Z,13.62
2023-07-27T21:47:09.764Z,13.58
2023-07-27T21:52:17.760Z,13.52
2023-07-27T21:57:24.641Z,13.52
2023-07-27T22:02:31.787Z,13.57
2023-07-27T22:07:39.016Z,13.65
2023-07-27T22:12:50.589Z,13.77
2023-07-27T22:18:10.299Z,13.83
2023-07-27T22:23:16.463Z,13.95
2023-07-27T22:28:22.084Z,14.12
2023-07-27T22:33:27.975Z,14.35
2023-07-27T22:38:33.884Z,14.49
2023-07-27T22:43:39.761Z,14.53
2023-07-27T22:48:45.577Z,14.51
2023-07-27T22:53:51.576Z,14.54
2023-07-27T22:58:57.738Z,14.65
2023-07-27T23:04:03.429Z,14.73
2023-07-27T23:09:09.494Z,14.81
2023-07-27T23:14:15.485Z,14.90
2023-07-27T23:19:21.556Z,14.98
2023-07-27T23:24:27.372Z,15.00
2023-07-27T23:29:32.934Z,14.97
2023-07-27T23:34:38.617Z,15.00
2023-07-27T23:39:44.337Z,15.05
2023-07-27T23:44:50.234Z,15.08
2023-07-27T23:49:55.956Z,15.04
2023-07-27T23:55:01.579Z,14.96
